Botna, Iowa
Current Conditions -  °F | °C
As of 3:15 AM on Thursday 27 Nov 2014 (Local Time) from KDNS Reporting Station
Broken Clouds Broken Clouds  
Wind Chill: -4°   Ceiling: 5500
Heat Index:   Visibility: 10mi
Dew Point:   Wind: 8mph
Humidity: 79%   Direction: 320°NW
Pressure: 30.47"   Gusts: NA
Location:  41.9078°N, 95.2666°W
Report Text: KDNS 270915Z AUTO 32007KT 10SM FEW050 BKN055 M13/M16 A3047 RMK AO2
Loading
Personal Weather Stations






























Interactive Weather Map New forecast layout! Learn more

10-Day Weather Forecast

Advertisements
Track Severe Weather on mobile